Time;durP1;ratioP1;P1;durP2;ratioP2;P2;SDS_P1;SDS_P2;PMS_P1;PMS_P2;Temp;Humidity;BMP_temperature;BMP_pressure;BME280_temperature;BME280_humidity;BME280_pressure;Samples;Min_cycle;Max_cycle;Signal;HPM_P1;HPM_P2
2023/04/16 00:02:26;;;;;;;16.48;10.75;;;9.60;99.90;;;;;;4839679;29;20513;-68
2023/04/16 00:05:18;;;;;;;16.77;11.60;;;9.70;99.90;;;;;;4839486;29;20038;-74
2023/04/16 00:11:23;;;;;;;22.50;13.93;;;9.60;99.90;;;;;;4797353;29;20137;-75
2023/04/16 00:13:51;;;;;;;20.33;13.27;;;9.50;99.90;;;;;;4802567;29;20047;-73
2023/04/16 00:16:22;;;;;;;22.08;15.02;;;9.50;99.90;;;;;;4803111;29;20498;-77
2023/04/16 00:19:19;;;;;;;22.33;15.10;;;9.50;99.90;;;;;;4796296;29;20054;-76
2023/04/16 00:21:46;;;;;;;21.30;14.07;;;9.40;99.90;;;;;;4818474;29;20074;-71
2023/04/16 00:24:56;;;;;;;24.85;15.20;;;9.40;99.90;;;;;;4818617;29;20140;-75
2023/04/16 00:27:36;;;;;;;;;;;;;;;;;;;;;
2023/04/16 00:30:07;;;;;;;25.23;16.65;;;9.20;99.90;;;;;;4792565;29;20049;-74
2023/04/16 00:33:24;;;;;;;;;;;;;;;;;;;;;
2023/04/16 00:35:56;;;;;;;23.27;16.05;;;9.10;99.90;;;;;;4815505;29;20157;-75
2023/04/16 00:38:22;;;;;;;25.40;15.45;;;9.10;99.90;;;;;;4816032;29;20395;-70
2023/04/16 00:41:06;;;;;;;21.20;14.35;;;9.10;99.90;;;;;;4802930;29;20242;-74
2023/04/16 00:43:50;;;;;;;21.58;12.90;;;9.00;99.90;;;;;;4791758;29;20030;-74
2023/04/16 00:46:33;;;;;;;15.52;10.55;;;8.90;99.90;;;;;;4819611;29;20026;-71
2023/04/16 00:49:21;;;;;;;20.42;12.00;;;8.90;99.90;;;;;;4864761;29;20036;-75
2023/04/16 00:51:50;;;;;;;17.60;11.70;;;8.80;99.90;;;;;;4894307;29;20052;-74
2023/04/16 00:54:57;;;;;;;17.25;10.05;;;8.80;99.90;;;;;;4894584;29;20028;-71
2023/04/16 00:57:25;;;;;;;16.52;9.85;;;8.70;99.90;;;;;;4897187;29;20039;-75
2023/04/16 01:03:22;;;;;;;19.10;11.23;;;8.70;99.90;;;;;;4855877;29;20036;-73
2023/04/16 01:06:01;;;;;;;15.88;10.85;;;8.60;99.90;;;;;;4895230;29;20374;-73
2023/04/16 01:08:30;;;;;;;17.35;9.80;;;8.60;99.90;;;;;;4892715;29;20028;-68
2023/04/16 01:11:16;;;;;;;15.55;9.32;;;8.60;99.90;;;;;;4877537;29;20408;-74
2023/04/16 01:14:06;;;;;;;14.95;9.57;;;8.60;99.90;;;;;;4863535;29;20041;-72
2023/04/16 01:17:18;;;;;;;16.00;10.63;;;8.60;99.90;;;;;;4890111;29;20037;-73
2023/04/16 01:19:53;;;;;;;16.13;10.52;;;8.70;99.90;;;;;;4895232;29;20041;-76
2023/04/16 01:22:42;;;;;;;15.50;9.95;;;8.70;99.90;;;;;;4896283;29;20032;-75
2023/04/16 01:25:18;;;;;;;16.40;10.10;;;8.60;99.90;;;;;;4895856;29;20035;-75
2023/04/16 01:28:08;;;;;;;19.33;10.05;;;8.70;99.90;;;;;;4879787;29;20123;-75
2023/04/16 01:30:46;;;;;;;14.43;9.68;;;8.60;99.90;;;;;;4870149;29;20044;-75
2023/04/16 01:33:49;;;;;;;14.15;9.85;;;8.70;99.90;;;;;;4896241;29;20051;-73
2023/04/16 01:36:18;;;;;;;14.70;9.68;;;8.70;99.90;;;;;;4838087;29;20037;-75
2023/04/16 01:38:44;;;;;;;15.95;10.00;;;8.60;99.90;;;;;;4823330;29;20112;-77
2023/04/16 01:41:10;;;;;;;15.02;10.18;;;8.50;99.90;;;;;;4838876;29;20216;-76
2023/04/16 01:43:36;;;;;;;15.00;9.55;;;8.60;99.90;;;;;;4823041;29;20149;-77
2023/04/16 01:46:25;;;;;;;12.95;8.00;;;8.60;99.90;;;;;;4838521;29;20200;-74
2023/04/16 01:48:55;;;;;;;14.57;9.57;;;8.50;99.90;;;;;;4838567;29;20050;-76
2023/04/16 01:51:22;;;;;;;15.73;9.77;;;8.40;99.90;;;;;;4838535;29;20050;-76
2023/04/16 01:53:49;;;;;;;13.85;9.90;;;8.40;99.90;;;;;;4842031;29;20037;-74
2023/04/16 01:56:15;;;;;;;18.35;9.73;;;8.40;99.90;;;;;;4841798;29;20064;-77
2023/04/16 02:02:26;;;;;;;14.73;9.57;;;8.40;99.90;;;;;;4754723;30;20447;-77
2023/04/16 02:05:22;;;;;;;14.55;9.52;;;8.50;99.90;;;;;;4754316;30;20485;-74
2023/04/16 02:08:00;;;;;;;15.43;10.35;;;8.50;99.90;;;;;;4761166;30;20066;-75
2023/04/16 02:10:26;;;;;;;15.75;10.32;;;8.60;99.90;;;;;;4769467;30;20489;-75
2023/04/16 02:12:51;;;;;;;14.10;9.73;;;8.60;99.90;;;;;;4754606;30;20054;-73
2023/04/16 02:15:18;;;;;;;16.75;10.30;;;8.60;99.90;;;;;;4769082;30;20046;-75
2023/04/16 02:17:45;;;;;;;15.57;9.77;;;8.60;99.90;;;;;;4751443;30;20056;-76
2023/04/16 02:21:22;;;;;;;18.55;11.43;;;8.60;99.90;;;;;;4766878;30;20062;-74
2023/04/16 02:24:15;;;;;;;16.67;10.02;;;8.60;99.90;;;;;;4690083;30;20045;-76
2023/04/16 02:26:41;;;;;;;13.88;9.57;;;8.50;99.90;;;;;;4698786;30;20056;-77
2023/04/16 02:29:13;;;;;;;16.63;9.68;;;8.50;99.90;;;;;;4699229;30;20034;-73
2023/04/16 02:31:43;;;;;;;14.50;10.07;;;8.50;99.90;;;;;;4698464;30;20050;-75
2023/04/16 02:34:10;;;;;;;15.75;11.07;;;8.50;99.90;;;;;;4698638;30;20050;-74
2023/04/16 02:36:39;;;;;;;17.45;10.80;;;8.30;99.90;;;;;;4698708;30;20045;-77
2023/04/16 02:39:05;;;;;;;16.42;11.00;;;8.40;99.90;;;;;;4761975;30;20050;-76
2023/04/16 02:41:31;;;;;;;15.68;10.10;;;8.40;99.90;;;;;;4786859;29;20035;-76
2023/04/16 02:43:56;;;;;;;16.90;10.80;;;8.40;99.90;;;;;;4786907;30;20044;-77
2023/04/16 02:46:22;;;;;;;18.48;10.02;;;8.50;99.90;;;;;;4771724;30;20536;-76
2023/04/16 02:48:49;;;;;;;16.08;10.27;;;8.60;99.90;;;;;;4770902;29;20035;-75
2023/04/16 02:51:39;;;;;;;17.05;10.02;;;8.60;99.90;;;;;;4786623;29;20497;-72
2023/04/16 02:54:25;;;;;;;18.70;9.73;;;8.70;99.90;;;;;;4783646;29;20046;-76
2023/04/16 02:56:51;;;;;;;16.30;10.45;;;8.60;99.90;;;;;;4812260;29;20053;-75
2023/04/16 02:59:17;;;;;;;16.58;11.05;;;8.70;99.90;;;;;;4832658;29;20029;-73
2023/04/16 03:01:42;;;;;;;16.38;9.95;;;8.60;99.90;;;;;;4878302;29;20115;-77
2023/04/16 03:04:08;;;;;;;17.25;10.48;;;8.60;99.90;;;;;;4874954;29;20033;-78
2023/04/16 03:06:34;;;;;;;17.60;11.55;;;8.60;99.90;;;;;;4862535;29;20044;-78
2023/04/16 03:09:09;;;;;;;17.92;10.63;;;8.70;99.90;;;;;;4867622;29;20056;-78
2023/04/16 03:11:35;;;;;;;17.52;11.88;;;8.70;99.90;;;;;;4875527;29;20086;-77
2023/04/16 03:14:01;;;;;;;18.20;11.77;;;8.70;99.90;;;;;;4866508;29;20040;-75
2023/04/16 03:16:26;;;;;;;19.20;12.00;;;8.70;99.90;;;;;;4862461;29;20030;-76
2023/04/16 03:18:52;;;;;;;16.27;10.77;;;8.70;99.90;;;;;;4875986;29;20113;-76
2023/04/16 03:21:18;;;;;;;15.60;11.05;;;8.60;99.90;;;;;;4881578;29;20039;-70
2023/04/16 03:23:54;;;;;;;16.65;10.45;;;8.70;99.90;;;;;;4905107;29;20039;-74
2023/04/16 03:26:21;;;;;;;17.08;10.38;;;8.60;99.90;;;;;;4892528;29;20489;-76
2023/04/16 03:28:47;;;;;;;15.40;9.73;;;8.70;99.90;;;;;;4900274;29;20040;-76
2023/04/16 03:31:13;;;;;;;15.50;9.80;;;8.70;99.90;;;;;;4915960;29;20093;-77
2023/04/16 03:33:40;;;;;;;15.45;10.07;;;8.70;99.90;;;;;;4906755;29;20036;-73
2023/04/16 03:36:06;;;;;;;15.00;9.63;;;8.70;99.90;;;;;;4911569;29;20079;-71
2023/04/16 03:39:05;;;;;;;14.60;9.98;;;8.80;99.90;;;;;;4899787;29;20032;-77
2023/04/16 03:41:31;;;;;;;16.27;9.95;;;8.70;99.90;;;;;;4917121;29;20391;-74
2023/04/16 03:43:57;;;;;;;15.05;9.77;;;8.80;99.90;;;;;;4899690;29;20363;-76
2023/04/16 03:46:23;;;;;;;19.60;11.40;;;8.80;99.90;;;;;;4899579;29;20043;-76
2023/04/16 03:48:49;;;;;;;15.43;10.57;;;8.70;99.90;;;;;;4915076;29;20039;-73
2023/04/16 03:51:15;;;;;;;14.98;11.27;;;8.60;99.90;;;;;;4887718;29;20032;-74
2023/04/16 03:53:44;;;;;;;18.55;10.13;;;8.60;99.90;;;;;;4898631;29;20062;-77
2023/04/16 03:56:09;;;;;;;14.27;9.27;;;8.70;99.90;;;;;;4896305;29;20035;-74
2023/04/16 03:58:36;;;;;;;14.73;9.27;;;8.70;99.90;;;;;;4893435;29;20024;-70
2023/04/16 04:01:01;;;;;;;13.65;8.93;;;8.60;99.90;;;;;;4919295;29;20042;-75
2023/04/16 04:03:28;;;;;;;16.55;9.85;;;8.60;99.90;;;;;;4916333;29;20028;-72
2023/04/16 04:05:55;;;;;;;15.00;9.90;;;8.60;99.90;;;;;;4899194;29;20036;-76
2023/04/16 04:08:27;;;;;;;13.45;9.15;;;8.60;99.90;;;;;;4899596;29;20523;-74
2023/04/16 04:11:09;;;;;;;14.20;8.85;;;8.50;99.90;;;;;;4895202;29;20048;-77
2023/04/16 04:13:37;;;;;;;17.83;9.27;;;8.50;99.90;;;;;;4895002;29;20506;-77
2023/04/16 04:16:04;;;;;;;14.23;8.73;;;8.50;99.90;;;;;;4894887;29;20067;-75
2023/04/16 04:18:31;;;;;;;14.73;8.85;;;8.60;99.90;;;;;;4898929;29;20041;-76
2023/04/16 04:20:58;;;;;;;12.02;7.75;;;8.60;99.90;;;;;;4916382;29;20471;-75
2023/04/16 04:23:28;;;;;;;13.50;8.65;;;8.60;99.90;;;;;;4898377;29;20473;-76
2023/04/16 04:26:12;;;;;;;11.90;7.95;;;8.60;99.90;;;;;;4916001;29;20028;-70
2023/04/16 04:28:39;;;;;;;13.77;8.20;;;8.60;99.90;;;;;;4899241;29;20499;-77
2023/04/16 04:31:05;;;;;;;12.40;7.65;;;8.60;99.90;;;;;;4899121;29;20036;-75
2023/04/16 04:33:30;;;;;;;11.98;7.18;;;8.60;99.90;;;;;;4898832;29;20122;-75
2023/04/16 04:35:56;;;;;;;11.50;7.55;;;8.70;99.90;;;;;;4898312;29;20408;-75
2023/04/16 04:38:24;;;;;;;11.27;6.93;;;8.70;99.90;;;;;;4899411;29;20031;-77
2023/04/16 04:40:51;;;;;;;12.38;7.80;;;8.60;99.90;;;;;;4898575;29;20032;-74
2023/04/16 04:43:19;;;;;;;11.52;7.10;;;8.70;99.90;;;;;;4897117;29;20089;-74
2023/04/16 04:45:46;;;;;;;13.60;8.13;;;8.60;99.90;;;;;;4898216;29;20123;-71
2023/04/16 04:48:12;;;;;;;12.77;8.23;;;8.80;99.90;;;;;;4898551;29;20040;-77
2023/04/16 04:50:39;;;;;;;11.52;6.97;;;8.80;99.90;;;;;;4913937;29;20039;-74
2023/04/16 04:53:10;;;;;;;11.13;6.38;;;8.70;99.90;;;;;;4898447;29;20080;-74
2023/04/16 04:55:37;;;;;;;10.02;6.20;;;8.80;99.90;;;;;;4881459;29;20039;-77
2023/04/16 04:58:04;;;;;;;10.30;6.78;;;8.80;99.90;;;;;;4895631;29;20041;-77
2023/04/16 05:00:31;;;;;;;11.48;6.68;;;8.90;99.90;;;;;;4897140;29;20076;-78
2023/04/16 05:02:57;;;;;;;11.48;6.45;;;8.90;99.90;;;;;;4886043;29;20031;-74
2023/04/16 05:05:23;;;;;;;13.73;7.43;;;8.80;99.90;;;;;;4913805;29;20043;-74
2023/04/16 05:08:24;;;;;;;12.00;6.85;;;8.90;99.90;;;;;;4914174;29;20028;-76
2023/04/16 05:10:49;;;;;;;11.93;6.38;;;8.90;99.90;;;;;;4915129;29;20127;-77
2023/04/16 05:13:15;;;;;;;14.60;9.63;;;8.90;99.90;;;;;;4913137;29;20116;-78
2023/04/16 05:15:41;;;;;;;14.45;9.27;;;8.80;99.90;;;;;;4913130;29;20032;-75
2023/04/16 05:18:07;;;;;;;16.13;9.93;;;8.90;99.90;;;;;;4908668;29;20604;-77
2023/04/16 05:20:33;;;;;;;15.15;9.48;;;9.00;99.90;;;;;;4915596;29;20024;-77
2023/04/16 05:22:58;;;;;;;14.68;8.50;;;9.10;99.90;;;;;;4896745;29;20043;-75
2023/04/16 05:25:24;;;;;;;11.27;7.15;;;9.10;99.90;;;;;;4915020;29;20029;-77
2023/04/16 05:27:50;;;;;;;11.40;7.63;;;9.30;99.90;;;;;;4917618;29;20031;-77
2023/04/16 05:30:16;;;;;;;13.02;7.88;;;9.30;99.90;;;;;;4918626;29;20035;-77
2023/04/16 05:32:41;;;;;;;15.00;8.75;;;9.30;99.90;;;;;;4918327;29;20074;-74
2023/04/16 05:35:08;;;;;;;14.07;8.48;;;9.50;99.90;;;;;;4909953;29;20429;-75
2023/04/16 05:37:34;;;;;;;15.13;8.10;;;9.70;99.90;;;;;;4909515;29;20119;-75
2023/04/16 05:40:00;;;;;;;13.20;8.48;;;9.80;99.90;;;;;;4915328;29;20119;-77
2023/04/16 05:42:25;;;;;;;10.30;6.63;;;9.70;99.90;;;;;;4918394;29;20079;-75
2023/04/16 05:44:51;;;;;;;11.43;7.13;;;9.80;99.90;;;;;;4917074;29;20039;-78
2023/04/16 05:47:17;;;;;;;11.60;6.43;;;9.90;99.90;;;;;;4911634;29;20516;-78
2023/04/16 05:49:43;;;;;;;11.48;7.63;;;9.90;99.90;;;;;;4918421;29;20123;-78
2023/04/16 05:52:09;;;;;;;11.90;6.95;;;9.90;99.90;;;;;;4917300;29;20123;-76
2023/04/16 05:54:34;;;;;;;12.90;7.05;;;9.90;99.90;;;;;;4917026;29;20028;-76
2023/04/16 05:57:01;;;;;;;10.60;6.78;;;10.00;99.90;;;;;;4916564;29;20028;-76
2023/04/16 05:59:28;;;;;;;11.77;6.35;;;10.10;99.90;;;;;;4918622;29;20548;-75
2023/04/16 06:01:53;;;;;;;12.65;6.72;;;10.20;99.90;;;;;;4918873;29;20054;-75
2023/04/16 06:04:19;;;;;;;11.15;6.20;;;10.30;99.90;;;;;;4917808;29;20040;-76
2023/04/16 06:06:45;;;;;;;13.38;7.70;;;10.40;99.90;;;;;;4904339;29;20040;-75
2023/04/16 06:09:11;;;;;;;9.85;6.45;;;10.60;99.90;;;;;;4913802;29;20568;-75
2023/04/16 06:11:37;;;;;;;11.52;7.60;;;10.70;99.90;;;;;;4915078;29;20123;-78
2023/04/16 06:14:02;;;;;;;13.73;8.27;;;10.70;99.90;;;;;;4918342;29;20032;-77
2023/04/16 06:16:28;;;;;;;11.65;6.90;;;10.80;99.90;;;;;;4913833;29;20168;-77
2023/04/16 06:18:54;;;;;;;12.48;6.90;;;10.80;99.90;;;;;;4877885;29;20136;-75
2023/04/16 06:21:20;;;;;;;15.52;6.97;;;10.90;99.90;;;;;;4874099;29;20541;-71
2023/04/16 06:23:46;;;;;;;11.35;7.20;;;10.90;99.90;;;;;;4879668;29;20029;-75
2023/04/16 06:26:12;;;;;;;10.38;6.13;;;10.80;99.90;;;;;;4879202;29;20514;-76
2023/04/16 06:28:38;;;;;;;10.45;5.97;;;10.90;99.90;;;;;;4865883;29;20045;-74
2023/04/16 06:31:06;;;;;;;9.30;6.15;;;10.90;99.90;;;;;;4878705;29;20082;-76
2023/04/16 06:34:08;;;;;;;9.75;5.97;;;11.00;99.90;;;;;;4874018;29;20039;-74
2023/04/16 06:36:56;;;;;;;10.93;5.65;;;11.10;99.90;;;;;;4867613;29;20422;-75
2023/04/16 06:39:59;;;;;;;8.20;5.15;;;11.20;99.90;;;;;;4865532;29;20529;-74
2023/04/16 06:42:25;;;;;;;10.90;6.47;;;11.40;99.90;;;;;;4868860;29;20061;-73
2023/04/16 06:44:53;;;;;;;18.20;6.45;;;11.60;99.90;;;;;;4867755;29;20513;-76
2023/04/16 06:47:51;;;;;;;11.38;5.55;;;11.90;99.90;;;;;;4868843;29;20041;-77
2023/04/16 06:50:37;;;;;;;8.52;4.95;;;12.10;99.90;;;;;;4867873;29;20029;-74
2023/04/16 06:53:24;;;;;;;11.63;6.57;;;12.30;99.90;;;;;;4867695;29;20351;-73
2023/04/16 06:55:57;;;;;;;11.30;6.10;;;12.50;99.90;;;;;;4879912;29;20116;-73
2023/04/16 06:58:55;;;;;;;9.88;6.30;;;12.50;99.90;;;;;;4868397;29;20053;-74
2023/04/16 07:01:32;;;;;;;10.15;6.63;;;12.30;99.90;;;;;;4852156;29;20107;-75
2023/04/16 07:04:13;;;;;;;11.90;6.35;;;12.40;99.90;;;;;;4867267;29;20500;-73
2023/04/16 07:06:40;;;;;;;10.63;6.13;;;12.30;99.90;;;;;;4874560;29;20057;-74
2023/04/16 07:09:16;;;;;;;10.23;5.93;;;12.50;99.90;;;;;;4856217;29;20033;-74
2023/04/16 07:11:58;;;;;;;11.90;7.10;;;12.60;99.90;;;;;;4869409;29;20049;-74
2023/04/16 07:14:38;;;;;;;11.25;6.53;;;12.60;99.90;;;;;;4866704;29;20025;-71
2023/04/16 07:17:27;;;;;;;12.35;6.47;;;12.80;99.90;;;;;;4875218;29;20113;-74
2023/04/16 07:20:25;;;;;;;13.18;7.22;;;12.80;99.90;;;;;;4882371;29;20049;-74
2023/04/16 07:23:18;;;;;;;8.35;6.35;;;12.70;99.90;;;;;;4880046;29;20165;-75
2023/04/16 07:25:50;;;;;;;11.75;6.63;;;12.80;99.90;;;;;;4887798;29;20116;-77
2023/04/16 07:28:45;;;;;;;9.15;6.13;;;13.00;99.90;;;;;;4886409;29;20182;-75
2023/04/16 07:32:01;;;;;;;12.98;7.10;;;13.10;99.90;;;;;;4862840;29;20037;-75
2023/04/16 07:34:26;;;;;;;;;;;13.50;99.90;;;;;;4870514;29;20085;-76
2023/04/16 07:40:09;;;;;;;9.05;5.15;;;13.30;99.90;;;;;;4876567;29;20401;-76
2023/04/16 07:42:35;;;;;;;10.00;5.72;;;13.60;99.90;;;;;;4887547;29;20021;-75
2023/04/16 07:45:17;;;;;;;10.75;6.03;;;14.20;99.90;;;;;;4886980;29;20088;-75
2023/04/16 07:48:05;;;;;;;9.60;5.88;;;14.50;99.90;;;;;;4895432;29;20040;-76
2023/04/16 07:50:49;;;;;;;11.50;6.45;;;14.30;99.90;;;;;;4880602;29;20044;-74
2023/04/16 07:53:15;;;;;;;9.55;5.80;;;13.90;99.90;;;;;;4884958;29;20477;-74
2023/04/16 07:56:15;;;;;;;10.30;5.80;;;13.90;99.90;;;;;;4888939;29;20032;-75
2023/04/16 07:59:22;;;;;;;10.18;5.97;;;14.30;99.90;;;;;;4828658;29;20051;-74
2023/04/16 08:02:24;;;;;;;9.73;5.53;;;14.30;99.90;;;;;;4785065;29;20035;-74
2023/04/16 08:05:00;;;;;;;8.30;5.40;;;14.40;99.90;;;;;;4773042;29;20035;-75
2023/04/16 08:07:41;;;;;;;11.23;5.72;;;14.20;99.90;;;;;;4778572;29;20036;-77
2023/04/16 08:10:07;;;;;;;13.48;6.22;;;14.50;99.90;;;;;;4778793;30;20051;-76
2023/04/16 08:13:01;;;;;;;8.63;6.20;;;14.60;99.90;;;;;;4767403;30;20161;-75
2023/04/16 08:15:28;;;;;;;10.68;5.95;;;14.20;99.90;;;;;;4777651;30;20508;-76
2023/04/16 08:18:15;;;;;;;;;;;;;;;;;;;;;
2023/04/16 08:21:09;;;;;;;;;;;;;;;;;;;;;
2023/04/16 08:24:04;;;;;;;10.95;5.97;;;14.20;99.90;;;;;;4802165;29;20488;-74
2023/04/16 08:26:37;;;;;;;9.88;5.85;;;14.50;99.90;;;;;;4802919;29;20046;-74
2023/04/16 08:29:32;;;;;;;10.07;5.93;;;14.80;99.90;;;;;;4800912;29;20070;-74
2023/04/16 08:31:58;;;;;;;12.30;6.25;;;15.20;99.90;;;;;;4797302;29;20049;-75
2023/04/16 08:37:51;;;;;;;8.70;5.53;;;15.20;99.90;;;;;;4816827;29;20050;-71
2023/04/16 08:40:28;;;;;;;12.60;6.90;;;14.80;99.90;;;;;;4824865;29;20050;-72
2023/04/16 08:43:04;;;;;;;9.35;6.50;;;14.80;99.90;;;;;;4818207;29;20026;-75
2023/04/16 08:49:43;;;;;;;8.77;5.55;;;14.80;99.90;;;;;;4767563;30;20465;-71
2023/04/16 08:53:07;;;;;;;8.65;5.60;;;15.00;99.90;;;;;;4762765;30;20406;-71
2023/04/16 08:56:15;;;;;;;11.10;5.82;;;15.10;99.90;;;;;;4743194;30;20040;-74
2023/04/16 08:58:57;;;;;;;10.32;5.45;;;15.20;99.90;;;;;;4695534;30;20045;-74
2023/04/16 09:01:59;;;;;;;8.35;4.97;;;15.40;99.90;;;;;;4684444;30;20085;-75
2023/04/16 09:04:27;;;;;;;10.05;5.85;;;15.50;99.90;;;;;;4647295;30;20449;-73
2023/04/16 09:06:55;;;;;;;8.35;5.00;;;15.50;99.90;;;;;;4646881;30;20481;-72
2023/04/16 09:09:22;;;;;;;8.60;5.32;;;15.60;99.90;;;;;;4648909;30;20077;-72
2023/04/16 09:11:51;;;;;;;8.48;5.63;;;15.80;99.90;;;;;;4648431;30;20066;-73
2023/04/16 09:14:18;;;;;;;9.23;5.60;;;15.60;99.90;;;;;;4648532;30;20039;-74
2023/04/16 09:16:46;;;;;;;7.43;4.88;;;15.70;99.90;;;;;;4648612;30;20046;-74
2023/04/16 09:19:13;;;;;;;8.80;5.10;;;16.00;99.90;;;;;;4648260;30;20055;-75
2023/04/16 09:21:41;;;;;;;12.80;5.75;;;16.10;99.90;;;;;;4659779;30;20047;-73
2023/04/16 09:24:08;;;;;;;8.32;5.82;;;16.20;99.90;;;;;;4648153;30;20533;-73
2023/04/16 09:26:35;;;;;;;12.85;6.30;;;16.00;99.90;;;;;;4682583;30;20038;-74
2023/04/16 09:29:01;;;;;;;10.15;6.30;;;16.20;99.90;;;;;;4701064;30;20054;-74
2023/04/16 09:31:27;;;;;;;10.70;7.32;;;16.30;99.90;;;;;;4782307;29;20059;-73
2023/04/16 09:34:07;;;;;;;9.25;5.65;;;16.20;99.90;;;;;;4806074;29;20401;-74
2023/04/16 09:36:34;;;;;;;10.23;6.18;;;16.20;99.90;;;;;;4805456;29;20035;-73
2023/04/16 09:39:00;;;;;;;10.60;6.00;;;16.00;99.90;;;;;;4816097;29;20023;-73
2023/04/16 09:41:28;;;;;;;10.30;6.00;;;16.10;99.90;;;;;;4899737;29;20036;-75
2023/04/16 09:44:02;;;;;;;12.18;6.30;;;16.30;99.90;;;;;;4899889;29;20405;-73
2023/04/16 09:46:39;;;;;;;7.95;5.53;;;16.40;99.90;;;;;;4899664;29;20035;-72
2023/04/16 09:49:13;;;;;;;8.73;5.60;;;16.60;99.90;;;;;;4899577;29;20117;-74
2023/04/16 09:51:47;;;;;;;7.43;5.00;;;16.60;99.90;;;;;;4899640;29;20044;-73
2023/04/16 09:54:13;;;;;;;10.07;5.00;;;16.70;99.90;;;;;;4899824;29;20032;-73
2023/04/16 09:56:41;;;;;;;9.40;5.60;;;16.70;99.90;;;;;;4899564;29;20393;-74
2023/04/16 09:59:15;;;;;;;9.68;5.75;;;16.70;99.90;;;;;;4899561;29;20032;-73
2023/04/16 10:01:42;;;;;;;9.20;5.55;;;16.60;99.90;;;;;;4899453;29;20051;-74
2023/04/16 10:04:08;;;;;;;9.73;5.30;;;16.70;99.90;;;;;;4898881;29;20039;-71
2023/04/16 10:06:33;;;;;;;9.10;5.32;;;16.60;99.90;;;;;;4899335;29;20040;-73
2023/04/16 10:08:59;;;;;;;8.32;4.80;;;16.80;99.90;;;;;;4899606;29;20023;-74
2023/04/16 10:11:25;;;;;;;7.85;4.68;;;16.60;99.90;;;;;;4899467;29;20089;-73
2023/04/16 10:13:52;;;;;;;6.75;4.32;;;16.60;99.90;;;;;;4898840;29;20028;-71
2023/04/16 10:16:18;;;;;;;6.60;4.38;;;16.80;99.90;;;;;;4898874;29;20044;-71
2023/04/16 10:18:46;;;;;;;7.43;4.53;;;16.70;99.90;;;;;;4898939;29;20045;-73
2023/04/16 10:21:12;;;;;;;6.57;4.05;;;16.90;99.90;;;;;;4899212;29;20105;-74
2023/04/16 10:23:39;;;;;;;6.63;3.80;;;16.70;99.90;;;;;;4899150;29;20111;-73
2023/04/16 10:26:05;;;;;;;5.60;3.42;;;16.60;99.90;;;;;;4899392;29;20035;-73
2023/04/16 10:28:34;;;;;;;5.57;3.92;;;16.80;99.90;;;;;;4899009;29;20035;-72
2023/04/16 10:31:03;;;;;;;5.80;3.78;;;16.90;99.90;;;;;;4898930;29;20048;-73
2023/04/16 10:33:32;;;;;;;7.38;4.10;;;17.00;99.90;;;;;;4899148;29;20017;-73
2023/04/16 10:36:22;;;;;;;6.65;3.67;;;16.90;99.90;;;;;;4893913;29;20107;-74
2023/04/16 10:38:52;;;;;;;7.00;3.67;;;16.90;99.90;;;;;;4891706;29;20402;-74
2023/04/16 10:41:21;;;;;;;5.88;3.72;;;17.10;99.90;;;;;;4898674;29;20073;-72
2023/04/16 10:43:50;;;;;;;8.45;4.65;;;17.40;99.90;;;;;;4899262;29;20075;-74
2023/04/16 10:46:30;;;;;;;8.00;5.15;;;17.30;99.90;;;;;;4898491;29;20063;-74
2023/04/16 10:49:00;;;;;;;6.05;4.22;;;17.50;99.90;;;;;;4898240;29;20036;-75
2023/04/16 10:51:34;;;;;;;8.80;4.50;;;17.40;99.90;;;;;;4898391;29;20097;-73
2023/04/16 10:54:11;;;;;;;6.78;4.43;;;17.60;99.90;;;;;;4898624;29;20028;-73
2023/04/16 10:56:37;;;;;;;9.60;4.10;;;17.60;99.90;;;;;;4898707;29;20033;-75
2023/04/16 10:59:09;;;;;;;9.35;4.55;;;17.90;99.90;;;;;;4898537;29;20077;-72
2023/04/16 11:01:35;;;;;;;11.10;4.00;;;17.80;99.90;;;;;;4898420;29;20037;-74
2023/04/16 11:04:20;;;;;;;6.55;4.03;;;17.80;99.90;;;;;;4898566;29;20036;-71
2023/04/16 11:07:04;;;;;;;5.78;3.80;;;17.90;99.90;;;;;;4898573;29;20035;-73
2023/04/16 11:09:52;;;;;;;6.00;3.67;;;17.90;99.90;;;;;;4898241;29;20035;-73
2023/04/16 11:12:19;;;;;;;6.28;4.15;;;17.90;99.90;;;;;;4898327;29;20081;-74
2023/04/16 11:14:53;;;;;;;5.15;3.88;;;18.00;99.90;;;;;;4898877;29;20024;-74
2023/04/16 11:17:20;;;;;;;4.95;3.47;;;18.20;99.90;;;;;;4886061;29;20035;-75
2023/04/16 11:19:47;;;;;;;5.93;3.58;;;18.30;99.90;;;;;;4898205;29;20061;-75
2023/04/16 11:22:16;;;;;;;6.55;4.10;;;18.20;99.90;;;;;;4897673;29;20480;-74
2023/04/16 11:24:45;;;;;;;5.65;3.88;;;18.30;99.90;;;;;;4897298;29;20048;-74
2023/04/16 11:27:14;;;;;;;7.38;4.03;;;18.40;99.90;;;;;;4898230;29;20036;-72
2023/04/16 11:29:40;;;;;;;7.97;4.40;;;18.30;99.90;;;;;;4890156;29;20017;-71
2023/04/16 11:32:06;;;;;;;6.35;3.90;;;18.60;99.90;;;;;;4893307;29;20091;-75
2023/04/16 11:34:32;;;;;;;7.03;4.43;;;18.60;99.90;;;;;;4898179;29;20381;-74
2023/04/16 11:36:58;;;;;;;8.10;4.20;;;18.70;99.90;;;;;;4898079;29;20028;-73
2023/04/16 11:39:24;;;;;;;8.63;5.43;;;18.90;99.90;;;;;;4898081;29;20027;-74
2023/04/16 11:41:54;;;;;;;9.30;5.32;;;18.90;99.90;;;;;;4897643;29;20033;-74
2023/04/16 11:44:22;;;;;;;9.57;4.90;;;18.90;99.90;;;;;;4897884;29;20024;-71
2023/04/16 11:46:49;;;;;;;7.78;4.88;;;18.60;99.90;;;;;;4897629;29;20084;-73
2023/04/16 11:49:18;;;;;;;9.10;5.50;;;18.90;99.90;;;;;;4897976;29;20115;-74
2023/04/16 11:51:46;;;;;;;9.85;4.97;;;18.90;99.90;;;;;;4897079;29;20499;-74
2023/04/16 11:54:22;;;;;;;8.10;5.25;;;19.00;99.90;;;;;;4898124;29;20130;-75
2023/04/16 11:56:50;;;;;;;8.93;5.30;;;18.90;99.90;;;;;;4897688;29;20044;-73
2023/04/16 11:59:21;;;;;;;11.32;6.88;;;18.80;99.90;;;;;;4893232;29;20032;-74
2023/04/16 12:01:57;;;;;;;11.15;6.15;;;18.80;99.90;;;;;;4896267;29;20485;-73
2023/04/16 12:04:25;;;;;;;8.95;5.40;;;18.50;99.90;;;;;;4896634;29;20028;-73
2023/04/16 12:07:07;;;;;;;8.82;5.68;;;18.70;99.90;;;;;;4894535;29;20366;-71
2023/04/16 12:09:35;;;;;;;14.40;8.70;;;18.60;99.90;;;;;;4895849;29;20129;-74
2023/04/16 12:12:02;;;;;;;8.57;5.82;;;18.70;99.90;;;;;;4893027;29;20158;-74
2023/04/16 12:14:30;;;;;;;10.10;6.30;;;18.80;99.90;;;;;;4882904;29;20497;-74
2023/04/16 12:17:15;;;;;;;10.27;5.95;;;18.60;99.90;;;;;;4890783;29;20497;-73
2023/04/16 12:19:58;;;;;;;11.18;6.45;;;18.50;99.90;;;;;;4891011;29;20167;-74
2023/04/16 12:22:33;;;;;;;9.68;6.40;;;18.30;99.90;;;;;;4888968;29;20032;-75
2023/04/16 12:25:11;;;;;;;9.18;6.18;;;18.30;99.90;;;;;;4891636;29;20029;-75
2023/04/16 12:27:49;;;;;;;12.70;6.65;;;18.20;99.90;;;;;;4891852;29;20564;-71
2023/04/16 12:30:19;;;;;;;10.10;5.80;;;18.20;99.90;;;;;;4895565;29;20440;-75
2023/04/16 12:32:47;;;;;;;11.05;6.38;;;18.30;99.90;;;;;;4896175;29;20037;-77
2023/04/16 12:35:27;;;;;;;11.55;6.57;;;18.00;99.90;;;;;;4897096;29;20484;-72
2023/04/16 12:37:53;;;;;;;10.73;6.20;;;18.00;99.90;;;;;;4897105;29;20104;-74
2023/04/16 12:40:19;;;;;;;7.82;5.65;;;17.90;99.90;;;;;;4897318;29;20421;-76
2023/04/16 12:42:45;;;;;;;9.30;5.85;;;17.80;99.90;;;;;;4895857;29;20043;-72
2023/04/16 12:45:11;;;;;;;12.27;7.32;;;17.70;99.90;;;;;;4896990;29;20044;-76
2023/04/16 12:47:36;;;;;;;11.75;6.80;;;17.70;99.90;;;;;;4896096;29;20474;-72
2023/04/16 12:50:02;;;;;;;14.73;7.22;;;17.60;99.90;;;;;;4901393;29;20032;-77
2023/04/16 12:52:28;;;;;;;15.30;9.30;;;17.60;99.90;;;;;;4905019;29;20045;-76
2023/04/16 12:54:54;;;;;;;5.47;3.15;;;17.40;99.90;;;;;;4892460;29;20557;-74
2023/04/16 12:57:20;;;;;;;6.40;4.40;;;17.20;99.90;;;;;;4888212;29;20036;-73
2023/04/16 12:59:46;;;;;;;11.82;6.05;;;16.90;99.90;;;;;;4892490;29;20036;-74
2023/04/16 13:02:12;;;;;;;12.50;5.80;;;16.70;99.90;;;;;;4888539;29;20038;-72
2023/04/16 13:04:38;;;;;;;13.68;6.93;;;16.40;99.90;;;;;;4893382;29;20024;-74
2023/04/16 13:07:04;;;;;;;8.23;5.03;;;16.10;99.90;;;;;;4896506;29;20429;-70
2023/04/16 13:09:30;;;;;;;10.43;5.20;;;16.10;99.90;;;;;;4896474;29;20024;-72
2023/04/16 13:11:55;;;;;;;12.13;6.38;;;16.00;99.90;;;;;;4896658;29;20045;-74
2023/04/16 13:14:21;;;;;;;7.22;4.45;;;15.90;99.90;;;;;;4896319;29;20060;-72
2023/04/16 13:16:47;;;;;;;6.80;4.15;;;15.50;99.90;;;;;;4894342;29;20032;-73
2023/04/16 13:19:14;;;;;;;6.88;4.82;;;15.40;99.90;;;;;;4895000;29;20463;-72
2023/04/16 13:21:40;;;;;;;7.25;4.97;;;15.40;99.90;;;;;;4874776;29;20400;-74
2023/04/16 13:24:06;;;;;;;9.05;4.30;;;15.40;99.90;;;;;;4896471;29;20031;-74
2023/04/16 13:26:32;;;;;;;10.88;5.80;;;15.30;99.90;;;;;;4896465;29;20249;-72
2023/04/16 13:28:58;;;;;;;9.77;4.95;;;15.20;99.90;;;;;;4896179;29;20388;-76
2023/04/16 13:31:25;;;;;;;10.43;6.20;;;15.10;99.90;;;;;;4888739;29;20041;-73
2023/04/16 13:33:51;;;;;;;10.00;5.07;;;15.00;99.90;;;;;;4890954;29;20469;-72
2023/04/16 13:36:17;;;;;;;14.10;6.40;;;15.00;99.90;;;;;;4896503;29;20076;-74
2023/04/16 13:38:42;;;;;;;9.80;5.03;;;15.00;99.90;;;;;;4894224;29;20032;-73
2023/04/16 13:41:08;;;;;;;12.18;5.80;;;14.80;99.90;;;;;;4895140;29;20032;-74